createdAt,value
2017-03-10T00:00:07.154Z,0
2017-03-10T00:01:21.501Z,0
2017-03-10T00:02:35.034Z,0
2017-03-10T00:03:48.933Z,0
2017-03-10T00:05:02.500Z,0
2017-03-10T00:06:15.953Z,0
2017-03-10T00:07:29.518Z,0
2017-03-10T00:08:45.422Z,0
2017-03-10T00:10:00.101Z,0
2017-03-10T00:11:13.545Z,0
2017-03-10T00:12:26.972Z,0
2017-03-10T00:13:45.043Z,0
2017-03-10T00:14:59.334Z,0
2017-03-10T00:16:12.874Z,0
2017-03-10T00:17:26.496Z,0
2017-03-10T00:18:40.365Z,0
2017-03-10T00:19:53.918Z,0
2017-03-10T00:21:07.432Z,0
2017-03-10T00:22:21.329Z,0
2017-03-10T00:23:35.589Z,0
2017-03-10T00:24:49.043Z,0
2017-03-10T00:26:02.741Z,0
2017-03-10T00:27:16.579Z,0
2017-03-10T00:28:30.073Z,0
2017-03-10T00:29:43.924Z,0
2017-03-10T00:30:57.806Z,0
2017-03-10T00:32:11.302Z,0
2017-03-10T00:33:24.881Z,0
2017-03-10T00:34:38.343Z,0
2017-03-10T00:35:51.778Z,0
2017-03-10T00:37:05.322Z,0
2017-03-10T00:38:19.180Z,0
2017-03-10T00:39:32.665Z,0
2017-03-10T00:40:46.145Z,0
2017-03-10T00:42:00.725Z,0
2017-03-10T00:43:14.194Z,0
2017-03-10T00:44:28.054Z,0
2017-03-10T00:45:41.514Z,0
2017-03-10T00:46:54.984Z,0
2017-03-10T00:48:09.020Z,0
2017-03-10T00:49:22.611Z,0
2017-03-10T00:50:36.499Z,0
2017-03-10T00:51:49.963Z,0
2017-03-10T00:53:03.685Z,0
2017-03-10T00:54:17.586Z,0
2017-03-10T00:55:31.071Z,0
2017-03-10T00:56:44.512Z,0
2017-03-10T00:57:58.231Z,0
2017-03-10T00:59:11.700Z,0
2017-03-10T01:00:25.153Z,0
2017-03-10T01:01:38.702Z,0
2017-03-10T01:02:52.140Z,0
2017-03-10T01:04:06.043Z,0
2017-03-10T01:05:19.581Z,0
2017-03-10T01:06:33.035Z,0
2017-03-10T01:07:47.864Z,0
2017-03-10T01:09:01.471Z,0
2017-03-10T01:10:14.899Z,0
2017-03-10T01:11:28.339Z,0
2017-03-10T01:12:41.807Z,0
2017-03-10T01:13:55.370Z,0
2017-03-10T01:15:08.825Z,0
2017-03-10T01:16:24.841Z,0
2017-03-10T01:17:38.315Z,0
2017-03-10T01:18:53.387Z,0
2017-03-10T01:20:13.325Z,0
2017-03-10T01:21:34.227Z,0
2017-03-10T01:22:54.114Z,0
2017-03-10T01:24:15.692Z,0
2017-03-10T01:25:37.051Z,0
2017-03-10T01:26:58.459Z,0
2017-03-10T01:28:20.070Z,0
2017-03-10T01:29:39.271Z,0
2017-03-10T01:30:58.755Z,0
2017-03-10T01:32:16.939Z,0
2017-03-10T01:33:34.806Z,0
2017-03-10T01:34:53.243Z,0
2017-03-10T01:36:07.840Z,0
2017-03-10T01:37:21.288Z,0
2017-03-10T01:38:34.776Z,0
2017-03-10T01:39:48.990Z,0
2017-03-10T01:41:02.506Z,0
2017-03-10T01:42:16.387Z,0
2017-03-10T01:43:30.131Z,0
2017-03-10T01:44:44.096Z,0
2017-03-10T01:45:57.575Z,0
2017-03-10T01:47:11.086Z,0
2017-03-10T01:48:25.030Z,0
2017-03-10T01:49:39.413Z,0
2017-03-10T01:50:52.930Z,0
2017-03-10T01:52:06.503Z,0
2017-03-10T01:53:19.987Z,0
2017-03-10T01:54:33.938Z,0
2017-03-10T01:55:47.829Z,0
2017-03-10T01:57:01.351Z,0
2017-03-10T01:58:15.231Z,0
2017-03-10T01:59:29.101Z,0
2017-03-10T02:00:42.772Z,0
2017-03-10T02:01:56.933Z,0
2017-03-10T02:03:10.560Z,0
2017-03-10T02:04:24.020Z,0
2017-03-10T02:05:37.601Z,0
2017-03-10T02:06:51.093Z,0
2017-03-10T02:08:05.422Z,0
2017-03-10T02:09:20.024Z,0
2017-03-10T02:10:34.448Z,0
2017-03-10T02:11:48.436Z,0
2017-03-10T02:13:01.915Z,0
2017-03-10T02:14:15.401Z,0
2017-03-10T02:15:30.014Z,0
2017-03-10T02:16:43.491Z,0
2017-03-10T02:17:56.921Z,0
2017-03-10T02:19:10.356Z,0
2017-03-10T02:20:23.783Z,0
2017-03-10T02:21:37.257Z,0
2017-03-10T02:22:51.133Z,0
2017-03-10T02:24:04.994Z,0
2017-03-10T02:25:18.437Z,0
2017-03-10T02:26:31.857Z,0
2017-03-10T02:27:45.408Z,0
2017-03-10T02:28:58.836Z,0
2017-03-10T02:30:12.429Z,0
2017-03-10T02:31:26.657Z,0
2017-03-10T02:32:40.575Z,0
2017-03-10T02:33:56.378Z,0
2017-03-10T02:35:09.796Z,0
2017-03-10T02:36:23.242Z,0
2017-03-10T02:37:36.830Z,0
2017-03-10T02:38:50.304Z,0
2017-03-10T02:40:04.228Z,0
2017-03-10T02:41:17.654Z,0
2017-03-10T02:42:31.050Z,0
2017-03-10T02:43:44.604Z,0
2017-03-10T02:44:58.066Z,0
2017-03-10T02:46:11.917Z,0
2017-03-10T02:47:25.815Z,0
2017-03-10T02:48:39.342Z,0
2017-03-10T02:49:52.761Z,0
2017-03-10T02:51:06.540Z,0
2017-03-10T02:52:19.957Z,0
2017-03-10T02:53:33.434Z,0
2017-03-10T02:54:47.689Z,0
2017-03-10T02:56:02.089Z,0
2017-03-10T02:57:15.870Z,0
2017-03-10T02:58:29.308Z,0
2017-03-10T02:59:43.262Z,0
2017-03-10T03:00:56.745Z,0
2017-03-10T03:02:10.773Z,0
2017-03-10T03:03:24.604Z,0
2017-03-10T03:04:38.557Z,0
2017-03-10T03:05:52.011Z,0
2017-03-10T03:07:05.538Z,0
2017-03-10T03:08:18.981Z,0
2017-03-10T03:09:33.119Z,0
2017-03-10T03:10:47.070Z,0
2017-03-10T03:12:00.506Z,0
2017-03-10T03:13:14.016Z,0
2017-03-10T03:14:28.052Z,0
2017-03-10T03:15:41.558Z,0
2017-03-10T03:16:55.048Z,0
2017-03-10T03:18:08.514Z,0
2017-03-10T03:19:22.795Z,0
2017-03-10T03:20:36.803Z,0
2017-03-10T03:21:51.055Z,0
2017-03-10T03:23:04.570Z,0
2017-03-10T03:24:18.062Z,0
2017-03-10T03:25:31.555Z,0
2017-03-10T03:26:45.463Z,0
2017-03-10T03:28:00.007Z,0
2017-03-10T03:29:13.950Z,0
2017-03-10T03:30:27.503Z,0
2017-03-10T03:31:41.541Z,0
2017-03-10T03:32:55.458Z,0
2017-03-10T03:34:09.065Z,0
2017-03-10T03:35:22.616Z,0
2017-03-10T03:36:36.412Z,0
2017-03-10T03:37:49.867Z,0
2017-03-10T03:39:03.362Z,0
2017-03-10T03:40:17.348Z,0
2017-03-10T03:41:31.349Z,0
2017-03-10T03:42:45.008Z,0
2017-03-10T03:43:59.082Z,0
2017-03-10T03:45:12.629Z,0
2017-03-10T03:46:26.737Z,0
2017-03-10T03:47:55.311Z,0
2017-03-10T03:49:08.776Z,0
2017-03-10T03:50:24.849Z,0
2017-03-10T03:51:39.276Z,0
2017-03-10T03:52:54.512Z,0
2017-03-10T03:54:08.047Z,0
2017-03-10T03:55:21.976Z,0
2017-03-10T03:56:35.429Z,0
2017-03-10T03:57:49.021Z,0
2017-03-10T03:59:03.250Z,0
2017-03-10T04:00:16.755Z,0
2017-03-10T04:01:30.649Z,0
2017-03-10T04:02:45.003Z,0
2017-03-10T04:03:58.758Z,0
2017-03-10T04:05:12.766Z,0
2017-03-10T04:06:26.184Z,0
2017-03-10T04:07:40.071Z,0
2017-03-10T04:08:53.732Z,0
2017-03-10T04:10:07.215Z,0
2017-03-10T04:11:20.757Z,0
2017-03-10T04:12:34.231Z,0
2017-03-10T04:13:47.751Z,0
2017-03-10T04:15:01.722Z,0
2017-03-10T04:16:15.164Z,0
2017-03-10T04:17:29.772Z,0
2017-03-10T04:18:43.321Z,0
2017-03-10T04:19:56.865Z,0
2017-03-10T04:21:10.749Z,0
2017-03-10T04:22:24.223Z,0
2017-03-10T04:26:37.413Z,0
2017-03-10T04:27:51.304Z,0
2017-03-10T04:29:05.196Z,0
2017-03-10T04:30:19.076Z,0
2017-03-10T04:31:33.325Z,0
2017-03-10T04:32:47.474Z,0
2017-03-10T04:34:00.957Z,0
2017-03-10T04:35:14.839Z,0
2017-03-10T04:36:28.416Z,0
2017-03-10T04:37:42.342Z,0
2017-03-10T04:38:55.749Z,0
2017-03-10T04:40:09.423Z,0
2017-03-10T04:41:23.167Z,0
2017-03-10T04:42:36.669Z,0
2017-03-10T04:43:50.507Z,0
2017-03-10T04:45:04.441Z,0
2017-03-10T04:46:18.585Z,0
2017-03-10T04:47:32.191Z,0
2017-03-10T04:48:46.038Z,0
2017-03-10T04:49:59.677Z,0
2017-03-10T04:51:13.194Z,0
2017-03-10T04:52:26.806Z,0
2017-03-10T04:53:40.343Z,0
2017-03-10T04:54:53.827Z,0
2017-03-10T04:56:07.391Z,0
2017-03-10T04:57:20.797Z,0
2017-03-10T04:58:35.464Z,0
2017-03-10T04:59:48.937Z,0
2017-03-10T05:01:02.533Z,0
2017-03-10T05:02:16.015Z,0
2017-03-10T05:03:36.689Z,0
2017-03-10T05:04:54.817Z,0
2017-03-10T05:06:09.667Z,0
2017-03-10T05:07:25.243Z,0
2017-03-10T05:08:41.859Z,0
2017-03-10T05:09:57.077Z,0
2017-03-10T05:11:11.943Z,0
2017-03-10T05:12:26.011Z,0
2017-03-10T05:13:39.881Z,0
2017-03-10T05:14:53.335Z,0
2017-03-10T05:16:06.786Z,0
2017-03-10T05:17:20.292Z,0
2017-03-10T05:18:34.294Z,0
2017-03-10T05:19:47.775Z,0
2017-03-10T05:21:01.197Z,0
2017-03-10T05:22:15.191Z,0
2017-03-10T05:23:29.111Z,0
2017-03-10T05:24:43.139Z,0
2017-03-10T05:25:56.626Z,0
2017-03-10T05:27:10.060Z,0
2017-03-10T05:28:23.796Z,0
2017-03-10T05:29:37.301Z,0
2017-03-10T05:30:50.806Z,0
2017-03-10T05:32:04.537Z,0
2017-03-10T05:33:17.966Z,0
2017-03-10T05:34:31.894Z,0
2017-03-10T05:35:45.767Z,0
2017-03-10T05:36:59.922Z,0
2017-03-10T05:38:14.544Z,0
2017-03-10T05:39:34.410Z,0
2017-03-10T05:40:50.715Z,0
2017-03-10T05:42:05.848Z,0
2017-03-10T05:43:20.591Z,0
2017-03-10T05:44:34.196Z,0
2017-03-10T05:45:48.928Z,5
2017-03-10T05:47:02.488Z,5
2017-03-10T05:48:16.662Z,5
2017-03-10T05:49:30.182Z,5
2017-03-10T05:50:43.700Z,5
2017-03-10T05:51:57.579Z,5
2017-03-10T05:53:11.085Z,5
2017-03-10T05:54:24.546Z,10
2017-03-10T05:55:38.187Z,10
2017-03-10T05:56:51.691Z,10
2017-03-10T05:58:05.568Z,10
2017-03-10T05:59:19.024Z,10
2017-03-10T06:00:32.858Z,15
2017-03-10T06:01:46.757Z,15
2017-03-10T06:03:00.359Z,15
2017-03-10T06:04:14.254Z,20
2017-03-10T06:06:14.614Z,20
2017-03-10T06:07:28.563Z,20
2017-03-10T06:09:20.762Z,25
2017-03-10T06:10:34.223Z,25
2017-03-10T06:11:47.851Z,30
2017-03-10T06:14:37.416Z,30
2017-03-10T06:15:50.869Z,30
2017-03-10T06:17:04.784Z,35
2017-03-10T06:18:19.060Z,35
2017-03-10T06:19:32.503Z,35
2017-03-10T06:20:46.031Z,40
2017-03-10T06:22:00.578Z,40
2017-03-10T06:23:14.064Z,45
2017-03-10T06:24:27.511Z,40
2017-03-10T06:25:40.925Z,40
2017-03-10T06:26:54.563Z,45
2017-03-10T06:28:10.666Z,45
2017-03-10T06:29:24.195Z,50
2017-03-10T06:30:37.681Z,50
2017-03-10T06:31:52.005Z,50
2017-03-10T06:33:05.543Z,50
2017-03-10T06:34:18.985Z,50
2017-03-10T06:35:32.852Z,50
2017-03-10T06:36:46.308Z,55
2017-03-10T06:37:59.946Z,60
2017-03-10T06:39:13.359Z,60
2017-03-10T06:40:26.798Z,65
2017-03-10T06:41:40.655Z,65
2017-03-10T06:42:54.142Z,65
2017-03-10T06:44:07.948Z,65
2017-03-10T06:45:21.394Z,65
2017-03-10T06:46:35.315Z,70
2017-03-10T06:47:48.756Z,75
2017-03-10T06:49:02.341Z,70
2017-03-10T06:50:15.770Z,70
2017-03-10T06:51:29.841Z,70
2017-03-10T06:52:44.189Z,75
2017-03-10T06:53:58.464Z,75
2017-03-10T06:55:12.784Z,75
2017-03-10T06:56:26.735Z,75
2017-03-10T06:57:40.230Z,80
2017-03-10T06:58:53.740Z,85
2017-03-10T07:00:07.919Z,85
2017-03-10T07:01:21.434Z,90
2017-03-10T07:02:34.915Z,90
2017-03-10T07:03:48.601Z,95
2017-03-10T07:05:02.544Z,95
2017-03-10T07:06:16.688Z,100
2017-03-10T07:07:30.152Z,100
2017-03-10T07:08:43.719Z,105
2017-03-10T07:09:57.251Z,105
2017-03-10T07:11:10.764Z,105
2017-03-10T07:12:24.180Z,105
2017-03-10T07:13:37.601Z,105
2017-03-10T07:14:51.110Z,110
2017-03-10T07:16:04.700Z,115
2017-03-10T07:17:18.723Z,115
2017-03-10T07:18:32.163Z,115
2017-03-10T07:19:45.617Z,120
2017-03-10T07:20:59.148Z,125
2017-03-10T07:22:12.638Z,130
2017-03-10T07:23:26.346Z,130
2017-03-10T07:24:39.786Z,130
2017-03-10T07:25:53.334Z,125
2017-03-10T07:27:06.783Z,120
2017-03-10T07:28:20.200Z,110
2017-03-10T07:29:34.161Z,110
2017-03-10T07:30:47.683Z,100
2017-03-10T07:32:01.227Z,100
2017-03-10T07:33:15.066Z,105
2017-03-10T07:34:28.508Z,105
2017-03-10T07:35:41.988Z,105
2017-03-10T07:36:55.989Z,105
2017-03-10T07:38:09.891Z,100
2017-03-10T07:39:23.351Z,100
2017-03-10T07:40:37.281Z,100
2017-03-10T07:41:50.819Z,105
2017-03-10T07:43:04.733Z,105
2017-03-10T07:44:20.371Z,100
2017-03-10T07:45:33.822Z,105
2017-03-10T07:46:47.381Z,105
2017-03-10T07:48:00.845Z,100
2017-03-10T07:49:15.182Z,105
2017-03-10T07:50:28.656Z,105
2017-03-10T07:51:42.109Z,105
2017-03-10T07:52:55.645Z,110
2017-03-10T07:54:09.074Z,110
2017-03-10T07:55:22.522Z,110
2017-03-10T07:56:36.027Z,110
2017-03-10T07:57:49.572Z,110
2017-03-10T07:59:03.437Z,110
2017-03-10T08:00:16.919Z,110
2017-03-10T08:01:30.403Z,110
2017-03-10T08:02:43.962Z,110
2017-03-10T08:03:57.405Z,110
2017-03-10T08:05:11.041Z,110
2017-03-10T08:06:24.906Z,110
2017-03-10T08:07:38.518Z,110
2017-03-10T08:08:52.211Z,110
2017-03-10T08:10:05.690Z,115
2017-03-10T08:11:19.146Z,115
2017-03-10T08:12:32.638Z,115
2017-03-10T08:13:46.567Z,115
2017-03-10T08:15:00.419Z,120
2017-03-10T08:16:13.927Z,120
2017-03-10T08:17:28.183Z,120
2017-03-10T08:18:41.792Z,120
2017-03-10T08:19:55.248Z,125
2017-03-10T08:21:46.999Z,125
2017-03-10T08:23:00.470Z,130
2017-03-10T08:24:14.101Z,140
2017-03-10T08:25:28.069Z,150
2017-03-10T08:26:41.920Z,160
2017-03-10T08:27:55.372Z,170
2017-03-10T08:29:08.830Z,165
2017-03-10T08:30:22.272Z,150
2017-03-10T08:31:36.560Z,145
2017-03-10T08:32:50.062Z,140
2017-03-10T08:34:03.629Z,140
2017-03-10T08:35:17.517Z,140
2017-03-10T08:36:30.961Z,135
2017-03-10T08:37:44.431Z,135
2017-03-10T08:38:57.982Z,130
2017-03-10T08:40:11.570Z,120
2017-03-10T08:41:25.401Z,120
2017-03-10T08:42:38.863Z,130
2017-03-10T08:43:52.305Z,140
2017-03-10T08:45:06.287Z,155
2017-03-10T08:46:20.124Z,155
2017-03-10T08:47:33.999Z,160
2017-03-10T08:48:48.266Z,170
2017-03-10T08:50:02.191Z,175
2017-03-10T08:51:16.094Z,170
2017-03-10T08:52:30.014Z,170
2017-03-10T08:53:43.845Z,185
2017-03-10T08:54:57.306Z,165
2017-03-10T08:56:10.854Z,165
2017-03-10T08:57:24.284Z,165
2017-03-10T08:58:37.805Z,165
2017-03-10T08:59:51.272Z,160
2017-03-10T09:01:07.440Z,160
2017-03-10T09:02:20.952Z,160
2017-03-10T09:03:34.357Z,175
2017-03-10T09:04:48.254Z,170
2017-03-10T09:06:01.793Z,150
2017-03-10T09:07:15.218Z,155
2017-03-10T09:08:29.113Z,155
2017-03-10T09:09:42.557Z,155
2017-03-10T09:10:56.153Z,160
2017-03-10T09:12:09.706Z,145
2017-03-10T09:13:23.186Z,135
2017-03-10T09:14:36.610Z,150
2017-03-10T09:15:50.030Z,145
2017-03-10T09:17:03.598Z,155
2017-03-10T09:18:17.445Z,155
2017-03-10T09:19:30.879Z,165
2017-03-10T09:20:44.416Z,160
2017-03-10T09:21:57.868Z,160
2017-03-10T09:23:11.742Z,145
2017-03-10T09:24:25.363Z,145
2017-03-10T09:25:38.812Z,145
2017-03-10T09:26:52.704Z,140
2017-03-10T09:28:06.523Z,140
2017-03-10T09:29:19.968Z,140
2017-03-10T09:30:34.092Z,140
2017-03-10T09:31:47.567Z,140
2017-03-10T09:33:01.127Z,135
2017-03-10T09:34:14.595Z,135
2017-03-10T09:35:28.073Z,135
2017-03-10T09:36:41.573Z,135
2017-03-10T09:37:55.121Z,130
2017-03-10T09:39:08.717Z,130
2017-03-10T09:40:22.192Z,130
2017-03-10T09:41:35.658Z,130
2017-03-10T09:42:49.115Z,130
2017-03-10T09:44:02.857Z,130
2017-03-10T09:45:16.325Z,130
2017-03-10T09:46:29.789Z,130
2017-03-10T09:47:43.640Z,130
2017-03-10T09:48:57.235Z,130
2017-03-10T09:50:11.177Z,130
2017-03-10T09:51:24.639Z,125
2017-03-10T09:52:38.900Z,130
2017-03-10T09:53:52.863Z,130
2017-03-10T09:55:06.408Z,130
2017-03-10T09:56:19.941Z,130
2017-03-10T09:57:33.785Z,130
2017-03-10T09:58:47.197Z,130
2017-03-10T10:00:00.766Z,130
2017-03-10T10:01:14.211Z,125
2017-03-10T10:02:27.687Z,130
2017-03-10T10:03:41.201Z,125
2017-03-10T10:04:54.769Z,130
2017-03-10T10:06:08.199Z,130
2017-03-10T10:07:22.051Z,135
2017-03-10T10:08:35.901Z,135
2017-03-10T10:09:49.797Z,135
2017-03-10T10:11:03.364Z,140
2017-03-10T10:12:17.247Z,130
2017-03-10T10:13:30.735Z,145
2017-03-10T10:14:44.187Z,140
2017-03-10T10:15:58.114Z,140
2017-03-10T10:17:13.807Z,135
2017-03-10T10:18:27.644Z,145
2017-03-10T10:19:41.085Z,145
2017-03-10T10:20:54.635Z,145
2017-03-10T10:22:08.130Z,145
2017-03-10T10:23:21.590Z,145
2017-03-10T10:24:35.030Z,145
2017-03-10T10:25:48.540Z,140
2017-03-10T10:27:01.982Z,140
2017-03-10T10:28:15.499Z,140
2017-03-10T10:29:28.960Z,140
2017-03-10T10:30:42.416Z,140
2017-03-10T10:31:56.311Z,145
2017-03-10T10:33:09.720Z,140
2017-03-10T10:34:23.165Z,140
2017-03-10T10:35:37.056Z,140
2017-03-10T10:36:50.624Z,140
2017-03-10T10:38:04.294Z,140
2017-03-10T10:39:18.187Z,140
2017-03-10T10:40:32.071Z,145
2017-03-10T10:41:45.558Z,145
2017-03-10T10:42:59.001Z,145
2017-03-10T10:44:12.573Z,135
2017-03-10T10:45:26.060Z,130
2017-03-10T10:46:39.582Z,140
2017-03-10T10:47:53.068Z,145
2017-03-10T10:49:06.897Z,150
2017-03-10T10:50:20.819Z,160
2017-03-10T10:51:34.266Z,170
2017-03-10T10:52:47.816Z,180
2017-03-10T10:54:01.295Z,185
2017-03-10T10:55:15.245Z,190
2017-03-10T10:56:29.305Z,190
2017-03-10T10:57:42.760Z,185
2017-03-10T10:58:56.236Z,185
2017-03-10T11:00:10.013Z,175
2017-03-10T11:01:23.543Z,180
2017-03-10T11:02:37.912Z,165
2017-03-10T11:03:51.519Z,160
2017-03-10T11:05:05.025Z,155
2017-03-10T11:06:18.531Z,155
2017-03-10T11:07:32.949Z,155
2017-03-10T11:08:46.571Z,165
2017-03-10T11:10:00.032Z,165
2017-03-10T11:11:13.812Z,170
2017-03-10T11:12:27.731Z,170
2017-03-10T11:13:41.640Z,170
2017-03-10T11:14:55.642Z,175
2017-03-10T11:16:09.225Z,165
2017-03-10T11:17:22.715Z,155
2017-03-10T11:18:36.803Z,150
2017-03-10T11:19:50.307Z,145
2017-03-10T11:21:03.827Z,145
2017-03-10T11:22:17.355Z,145
2017-03-10T11:23:31.206Z,140
2017-03-10T11:24:44.733Z,130
2017-03-10T11:25:58.154Z,125
2017-03-10T11:27:11.884Z,130
2017-03-10T11:28:25.774Z,125
2017-03-10T11:29:39.557Z,135
2017-03-10T11:30:53.061Z,150
2017-03-10T11:32:07.081Z,160
2017-03-10T11:33:22.991Z,175
2017-03-10T11:34:37.014Z,170
2017-03-10T11:35:51.692Z,170
2017-03-10T11:37:06.049Z,170
2017-03-10T11:38:19.543Z,165
2017-03-10T11:39:33.199Z,165
2017-03-10T11:40:46.958Z,165
2017-03-10T11:42:00.483Z,165
2017-03-10T11:43:14.967Z,150
2017-03-10T11:44:28.977Z,140
2017-03-10T11:45:42.913Z,135
2017-03-10T11:46:56.934Z,135
2017-03-10T11:48:10.917Z,130
2017-03-10T11:49:24.850Z,125
2017-03-10T11:50:39.606Z,125
2017-03-10T11:51:53.191Z,125
2017-03-10T11:53:06.809Z,125
2017-03-10T11:54:21.629Z,130
2017-03-10T11:55:35.834Z,130
2017-03-10T11:56:49.486Z,135
2017-03-10T11:58:03.482Z,145
2017-03-10T11:59:17.314Z,150
2017-03-10T12:00:31.293Z,145
2017-03-10T12:01:44.860Z,140
2017-03-10T12:02:58.339Z,130
2017-03-10T12:04:12.302Z,125
2017-03-10T12:05:26.368Z,125
2017-03-10T12:06:40.543Z,125
2017-03-10T12:07:54.569Z,125
2017-03-10T12:09:08.616Z,125
2017-03-10T12:10:22.450Z,130
2017-03-10T12:11:36.626Z,125
2017-03-10T12:12:51.320Z,125
2017-03-10T12:14:05.338Z,130
2017-03-10T12:15:19.113Z,135
2017-03-10T12:16:33.118Z,145
2017-03-10T12:17:46.620Z,145
2017-03-10T12:19:01.252Z,145
2017-03-10T12:20:15.268Z,145
2017-03-10T12:21:28.740Z,150
2017-03-10T12:22:43.800Z,145
2017-03-10T12:23:57.267Z,150
2017-03-10T12:25:11.117Z,150
2017-03-10T12:26:24.668Z,145
2017-03-10T12:27:38.164Z,140
2017-03-10T12:28:51.643Z,145
2017-03-10T12:30:05.161Z,140
2017-03-10T12:31:19.041Z,135
2017-03-10T12:32:32.965Z,135
2017-03-10T12:33:46.857Z,130
2017-03-10T12:35:00.513Z,130
2017-03-10T12:36:13.947Z,135
2017-03-10T12:37:27.811Z,135
2017-03-10T12:38:41.265Z,135
2017-03-10T12:40:14.025Z,135
2017-03-10T12:41:27.483Z,135
2017-03-10T12:42:41.385Z,135
2017-03-10T12:43:54.847Z,135
2017-03-10T12:45:08.390Z,145
2017-03-10T12:46:21.862Z,150
2017-03-10T12:47:35.352Z,155
2017-03-10T12:48:49.117Z,150
2017-03-10T12:50:04.753Z,140
2017-03-10T12:51:18.335Z,140
2017-03-10T12:52:31.790Z,140
2017-03-10T12:53:45.442Z,140
2017-03-10T12:54:59.173Z,140
2017-03-10T12:56:13.872Z,140
2017-03-10T12:57:27.371Z,135
2017-03-10T12:58:41.232Z,135
2017-03-10T12:59:54.687Z,135
2017-03-10T13:01:08.960Z,130
2017-03-10T13:02:22.941Z,130
2017-03-10T13:03:36.768Z,130
2017-03-10T13:04:50.664Z,135
2017-03-10T13:06:04.277Z,130
2017-03-10T13:07:18.080Z,130
2017-03-10T13:08:31.659Z,130
2017-03-10T13:09:46.026Z,125
2017-03-10T13:11:00.305Z,125
2017-03-10T13:12:13.952Z,125
2017-03-10T13:13:28.231Z,120
2017-03-10T13:14:42.300Z,120
2017-03-10T13:15:56.239Z,120
2017-03-10T13:17:10.473Z,120
2017-03-10T13:18:24.733Z,120
2017-03-10T13:19:38.492Z,125
2017-03-10T13:20:52.019Z,125
2017-03-10T13:22:05.973Z,125
2017-03-10T13:23:19.572Z,125
2017-03-10T13:24:33.079Z,120
2017-03-10T13:25:46.841Z,120
2017-03-10T13:27:00.452Z,125
2017-03-10T13:28:14.430Z,125
2017-03-10T13:29:27.922Z,120
2017-03-10T13:30:41.823Z,120
2017-03-10T13:31:55.585Z,120
2017-03-10T13:33:10.168Z,120
2017-03-10T13:34:23.642Z,120
2017-03-10T13:35:37.127Z,120
2017-03-10T13:36:50.588Z,120
2017-03-10T13:38:04.586Z,120
2017-03-10T13:39:18.185Z,120
2017-03-10T13:40:31.680Z,120
2017-03-10T13:41:45.142Z,120
2017-03-10T13:42:58.710Z,120
2017-03-10T13:44:12.552Z,115
2017-03-10T13:45:26.014Z,120
2017-03-10T13:46:39.876Z,120
2017-03-10T13:47:53.378Z,115
2017-03-10T13:49:06.999Z,115
2017-03-10T13:50:20.729Z,115
2017-03-10T13:51:34.597Z,115
2017-03-10T13:52:48.054Z,120
2017-03-10T13:54:01.993Z,120
2017-03-10T13:55:15.535Z,120
2017-03-10T13:56:29.310Z,120
2017-03-10T13:57:43.202Z,120
2017-03-10T13:58:57.113Z,120
2017-03-10T14:00:11.111Z,120
2017-03-10T14:01:24.595Z,115
2017-03-10T14:02:39.420Z,120
2017-03-10T14:03:53.217Z,115
2017-03-10T14:05:07.181Z,120
2017-03-10T14:06:22.831Z,130
2017-03-10T14:07:36.270Z,140
2017-03-10T14:08:49.745Z,145
2017-03-10T14:10:03.797Z,145
2017-03-10T14:11:17.250Z,140
2017-03-10T14:12:31.166Z,135
2017-03-10T14:13:44.646Z,125
2017-03-10T14:14:58.421Z,120
2017-03-10T14:16:11.977Z,120
2017-03-10T14:17:25.509Z,115
2017-03-10T14:18:39.555Z,115
2017-03-10T14:19:53.918Z,110
2017-03-10T14:21:08.004Z,115
2017-03-10T14:22:21.963Z,110
2017-03-10T14:23:35.467Z,120
2017-03-10T14:24:49.038Z,115
2017-03-10T14:26:02.674Z,115
2017-03-10T14:27:16.964Z,120
2017-03-10T14:28:30.842Z,115
2017-03-10T14:29:44.303Z,120
2017-03-10T14:30:58.015Z,120
2017-03-10T14:32:11.997Z,120
2017-03-10T14:33:25.769Z,125
2017-03-10T14:36:16.077Z,125
2017-03-10T14:37:30.007Z,130
2017-03-10T14:38:43.729Z,130
2017-03-10T14:39:57.172Z,135
2017-03-10T14:41:11.205Z,135
2017-03-10T14:42:24.712Z,135
2017-03-10T14:43:38.168Z,135
2017-03-10T14:44:51.923Z,135
2017-03-10T14:46:05.844Z,130
2017-03-10T14:47:19.643Z,125
2017-03-10T14:48:33.135Z,120
2017-03-10T14:49:46.597Z,115
2017-03-10T14:51:00.372Z,115
2017-03-10T14:52:13.981Z,120
2017-03-10T14:53:27.459Z,110
2017-03-10T14:54:41.322Z,115
2017-03-10T14:55:54.904Z,120
2017-03-10T14:57:08.657Z,125
2017-03-10T14:58:22.752Z,120
2017-03-10T14:59:36.662Z,120
2017-03-10T15:00:50.532Z,120
2017-03-10T15:02:03.998Z,120
2017-03-10T15:03:17.937Z,120
2017-03-10T15:04:31.363Z,115
2017-03-10T15:05:44.845Z,120
2017-03-10T15:06:58.375Z,120
2017-03-10T15:08:13.497Z,120
2017-03-10T15:09:26.992Z,120
2017-03-10T15:10:40.834Z,120
2017-03-10T15:11:54.342Z,115
2017-03-10T15:13:10.382Z,110
2017-03-10T15:14:24.334Z,105
2017-03-10T15:15:38.277Z,110
2017-03-10T15:16:51.781Z,105
2017-03-10T15:18:05.291Z,105
2017-03-10T15:19:18.813Z,105
2017-03-10T15:20:32.742Z,105
2017-03-10T15:21:46.691Z,105
2017-03-10T15:23:13.026Z,105
2017-03-10T15:24:29.088Z,105
2017-03-10T15:25:43.782Z,100
2017-03-10T15:26:57.781Z,100
2017-03-10T15:28:11.299Z,100
2017-03-10T15:29:25.256Z,95
2017-03-10T15:30:39.218Z,95
2017-03-10T15:31:52.687Z,95
2017-03-10T15:33:06.644Z,90
2017-03-10T15:34:20.504Z,90
2017-03-10T15:35:34.381Z,90
2017-03-10T15:36:47.879Z,85
2017-03-10T15:38:01.363Z,85
2017-03-10T15:39:15.507Z,85
2017-03-10T15:40:28.976Z,85
2017-03-10T15:41:42.450Z,85
2017-03-10T15:42:56.413Z,85
2017-03-10T15:44:36.115Z,85
2017-03-10T15:45:50.113Z,85
2017-03-10T15:47:03.603Z,85
2017-03-10T15:48:17.506Z,85
2017-03-10T15:49:31.293Z,85
2017-03-10T15:50:44.766Z,80
2017-03-10T15:51:58.671Z,75
2017-03-10T15:53:12.141Z,75
2017-03-10T15:54:25.646Z,75
2017-03-10T15:55:39.134Z,75
2017-03-10T15:56:53.217Z,70
2017-03-10T16:00:12.909Z,70
2017-03-10T16:01:26.403Z,70
2017-03-10T16:02:40.289Z,75
2017-03-10T16:03:53.735Z,75
2017-03-10T16:05:07.609Z,75
2017-03-10T16:06:21.252Z,70
2017-03-10T16:07:35.155Z,70
2017-03-10T16:08:49.699Z,70
2017-03-10T16:10:03.599Z,70
2017-03-10T16:11:17.174Z,65
2017-03-10T16:12:30.604Z,65
2017-03-10T16:13:44.490Z,60
2017-03-10T16:14:58.379Z,60
2017-03-10T16:16:13.029Z,55
2017-03-10T16:17:26.598Z,55
2017-03-10T16:18:41.250Z,50
2017-03-10T16:19:54.791Z,50
2017-03-10T16:21:16.953Z,50
2017-03-10T16:22:42.554Z,50
2017-03-10T16:24:10.161Z,45
2017-03-10T16:25:36.348Z,45
2017-03-10T16:27:02.141Z,45
2017-03-10T16:28:28.307Z,45
2017-03-10T16:29:51.475Z,45
2017-03-10T16:31:17.270Z,45
2017-03-10T16:32:41.931Z,40
2017-03-10T16:34:10.636Z,40
2017-03-10T16:35:35.142Z,35
2017-03-10T16:36:51.017Z,35
2017-03-10T16:38:06.792Z,35
2017-03-10T16:39:21.308Z,35
2017-03-10T16:40:34.818Z,35
2017-03-10T16:41:48.316Z,30
2017-03-10T16:43:01.871Z,30
2017-03-10T16:44:17.189Z,30
2017-03-10T16:45:33.391Z,30
2017-03-10T16:46:47.421Z,25
2017-03-10T16:48:01.879Z,25
2017-03-10T16:49:16.299Z,25
2017-03-10T16:50:30.654Z,25
2017-03-10T16:51:44.485Z,25
2017-03-10T16:52:59.529Z,20
2017-03-10T16:54:16.158Z,20
2017-03-10T16:55:30.067Z,20
2017-03-10T16:56:44.310Z,20
2017-03-10T16:57:59.008Z,20
2017-03-10T16:59:13.774Z,15
2017-03-10T17:00:28.325Z,15
2017-03-10T17:01:42.969Z,15
2017-03-10T17:02:56.808Z,15
2017-03-10T17:04:12.412Z,15
2017-03-10T17:05:26.301Z,15
2017-03-10T17:06:40.284Z,10
2017-03-10T17:07:54.333Z,10
2017-03-10T17:09:09.011Z,10
2017-03-10T17:10:23.178Z,10
2017-03-10T17:11:37.383Z,10
2017-03-10T17:12:51.840Z,5
2017-03-10T17:14:06.627Z,5
2017-03-10T17:15:21.718Z,5
2017-03-10T17:16:37.869Z,5
2017-03-10T17:17:53.438Z,5
2017-03-10T17:19:08.520Z,5
2017-03-10T17:20:22.588Z,5
2017-03-10T17:21:37.492Z,0
2017-03-10T17:22:51.508Z,0
2017-03-10T17:24:06.089Z,0
2017-03-10T17:25:20.311Z,0
2017-03-10T17:26:35.347Z,0
2017-03-10T17:27:50.806Z,0
2017-03-10T17:29:05.278Z,0
2017-03-10T17:30:20.283Z,0
2017-03-10T17:31:33.777Z,0
2017-03-10T17:32:47.290Z,0
2017-03-10T17:34:01.310Z,0
2017-03-10T17:35:15.924Z,0
2017-03-10T17:36:30.668Z,0
2017-03-10T17:37:45.171Z,0
2017-03-10T17:38:59.351Z,0
2017-03-10T17:40:13.617Z,0
2017-03-10T17:41:27.087Z,0
2017-03-10T17:42:40.935Z,0
2017-03-10T17:43:54.502Z,0